sensor_id;sensor_type;location;lat;lon;timestamp;P1;durP1;ratioP1;P2;durP2;ratioP2
37321;SDS011;23697;48.684;9.032;2023-11-18T00:01:34;3.85;;;2.10;;
37321;SDS011;23697;48.684;9.032;2023-11-18T00:04:03;8.82;;;1.75;;
37321;SDS011;23697;48.684;9.032;2023-11-18T00:06:30;2.85;;;1.83;;
37321;SDS011;23697;48.684;9.032;2023-11-18T00:08:57;4.13;;;2.22;;
37321;SDS011;23697;48.684;9.032;2023-11-18T00:11:24;3.72;;;1.75;;
37321;SDS011;23697;48.684;9.032;2023-11-18T00:13:52;2.80;;;1.67;;
37321;SDS011;23697;48.684;9.032;2023-11-18T00:16:19;3.30;;;2.05;;
37321;SDS011;23697;48.684;9.032;2023-11-18T00:18:47;3.33;;;1.80;;
37321;SDS011;23697;48.684;9.032;2023-11-18T00:21:15;5.85;;;2.25;;
37321;SDS011;23697;48.684;9.032;2023-11-18T00:23:43;3.28;;;2.00;;
37321;SDS011;23697;48.684;9.032;2023-11-18T00:26:10;2.80;;;1.70;;
37321;SDS011;23697;48.684;9.032;2023-11-18T00:28:38;4.35;;;2.10;;
37321;SDS011;23697;48.684;9.032;2023-11-18T00:31:05;3.95;;;2.00;;
37321;SDS011;23697;48.684;9.032;2023-11-18T00:33:32;2.78;;;1.83;;
37321;SDS011;23697;48.684;9.032;2023-11-18T00:35:58;2.38;;;1.60;;
37321;SDS011;23697;48.684;9.032;2023-11-18T00:38:27;3.05;;;1.85;;
37321;SDS011;23697;48.684;9.032;2023-11-18T00:40:53;3.22;;;2.05;;
37321;SDS011;23697;48.684;9.032;2023-11-18T00:43:20;3.08;;;1.60;;
37321;SDS011;23697;48.684;9.032;2023-11-18T00:45:48;3.03;;;1.70;;
37321;SDS011;23697;48.684;9.032;2023-11-18T00:48:14;3.30;;;1.80;;
37321;SDS011;23697;48.684;9.032;2023-11-18T00:50:41;1.85;;;1.48;;
37321;SDS011;23697;48.684;9.032;2023-11-18T00:53:08;2.25;;;1.50;;
37321;SDS011;23697;48.684;9.032;2023-11-18T00:55:36;1.63;;;1.40;;
37321;SDS011;23697;48.684;9.032;2023-11-18T00:58:03;2.70;;;1.80;;
37321;SDS011;23697;48.684;9.032;2023-11-18T01:00:31;2.75;;;1.70;;
37321;SDS011;23697;48.684;9.032;2023-11-18T01:02:57;2.90;;;1.70;;
37321;SDS011;23697;48.684;9.032;2023-11-18T01:05:24;4.72;;;1.55;;
37321;SDS011;23697;48.684;9.032;2023-11-18T01:07:51;2.53;;;1.65;;
37321;SDS011;23697;48.684;9.032;2023-11-18T01:10:18;2.65;;;1.58;;
37321;SDS011;23697;48.684;9.032;2023-11-18T01:12:46;2.50;;;1.50;;
37321;SDS011;23697;48.684;9.032;2023-11-18T01:15:13;2.53;;;1.60;;
37321;SDS011;23697;48.684;9.032;2023-11-18T01:17:40;2.80;;;1.55;;
37321;SDS011;23697;48.684;9.032;2023-11-18T01:20:07;4.05;;;1.75;;
37321;SDS011;23697;48.684;9.032;2023-11-18T01:22:35;2.05;;;1.30;;
37321;SDS011;23697;48.684;9.032;2023-11-18T01:25:02;1.52;;;1.20;;
37321;SDS011;23697;48.684;9.032;2023-11-18T01:27:30;2.85;;;1.60;;
37321;SDS011;23697;48.684;9.032;2023-11-18T01:30:00;2.20;;;1.45;;
37321;SDS011;23697;48.684;9.032;2023-11-18T01:32:27;3.67;;;1.50;;
37321;SDS011;23697;48.684;9.032;2023-11-18T01:34:54;1.23;;;1.10;;
37321;SDS011;23697;48.684;9.032;2023-11-18T01:37:22;2.97;;;1.55;;
37321;SDS011;23697;48.684;9.032;2023-11-18T01:39:49;2.47;;;1.55;;
37321;SDS011;23697;48.684;9.032;2023-11-18T01:42:16;2.05;;;1.30;;
37321;SDS011;23697;48.684;9.032;2023-11-18T01:44:43;3.15;;;1.40;;
37321;SDS011;23697;48.684;9.032;2023-11-18T01:47:11;2.08;;;1.50;;
37321;SDS011;23697;48.684;9.032;2023-11-18T01:49:38;2.00;;;1.33;;
37321;SDS011;23697;48.684;9.032;2023-11-18T01:52:06;2.83;;;1.77;;
37321;SDS011;23697;48.684;9.032;2023-11-18T01:54:34;2.88;;;1.75;;
37321;SDS011;23697;48.684;9.032;2023-11-18T01:57:02;2.85;;;1.45;;
37321;SDS011;23697;48.684;9.032;2023-11-18T01:59:31;2.55;;;1.58;;
37321;SDS011;23697;48.684;9.032;2023-11-18T02:01:59;2.63;;;1.60;;
37321;SDS011;23697;48.684;9.032;2023-11-18T02:04:28;3.83;;;1.80;;
37321;SDS011;23697;48.684;9.032;2023-11-18T02:06:56;2.25;;;1.45;;
37321;SDS011;23697;48.684;9.032;2023-11-18T02:09:24;2.45;;;1.45;;
37321;SDS011;23697;48.684;9.032;2023-11-18T02:11:54;1.73;;;1.30;;
37321;SDS011;23697;48.684;9.032;2023-11-18T02:14:26;2.63;;;1.55;;
37321;SDS011;23697;48.684;9.032;2023-11-18T02:16:56;3.15;;;1.33;;
37321;SDS011;23697;48.684;9.032;2023-11-18T02:19:29;1.73;;;1.33;;
37321;SDS011;23697;48.684;9.032;2023-11-18T02:21:57;1.95;;;1.23;;
37321;SDS011;23697;48.684;9.032;2023-11-18T02:24:26;2.55;;;1.55;;
37321;SDS011;23697;48.684;9.032;2023-11-18T02:26:57;2.63;;;1.63;;
37321;SDS011;23697;48.684;9.032;2023-11-18T02:29:25;2.92;;;1.50;;
37321;SDS011;23697;48.684;9.032;2023-11-18T02:31:55;2.28;;;1.42;;
37321;SDS011;23697;48.684;9.032;2023-11-18T02:34:27;1.80;;;1.40;;
37321;SDS011;23697;48.684;9.032;2023-11-18T02:36:56;2.13;;;1.40;;
37321;SDS011;23697;48.684;9.032;2023-11-18T02:39:27;2.33;;;1.45;;
37321;SDS011;23697;48.684;9.032;2023-11-18T02:42:01;2.15;;;1.42;;
37321;SDS011;23697;48.684;9.032;2023-11-18T02:44:29;1.92;;;1.30;;
37321;SDS011;23697;48.684;9.032;2023-11-18T02:46:57;1.25;;;1.10;;
37321;SDS011;23697;48.684;9.032;2023-11-18T02:49:25;1.65;;;1.10;;
37321;SDS011;23697;48.684;9.032;2023-11-18T02:51:52;2.47;;;1.30;;
37321;SDS011;23697;48.684;9.032;2023-11-18T02:54:20;2.17;;;1.40;;
37321;SDS011;23697;48.684;9.032;2023-11-18T02:56:47;1.90;;;1.33;;
37321;SDS011;23697;48.684;9.032;2023-11-18T02:59:15;1.40;;;1.20;;
37321;SDS011;23697;48.684;9.032;2023-11-18T03:01:42;1.52;;;1.20;;
37321;SDS011;23697;48.684;9.032;2023-11-18T03:04:09;1.48;;;1.20;;
37321;SDS011;23697;48.684;9.032;2023-11-18T03:06:39;1.45;;;1.20;;
37321;SDS011;23697;48.684;9.032;2023-11-18T03:09:06;2.22;;;1.20;;
37321;SDS011;23697;48.684;9.032;2023-11-18T03:11:35;2.38;;;1.50;;
37321;SDS011;23697;48.684;9.032;2023-11-18T03:14:03;1.77;;;1.27;;
37321;SDS011;23697;48.684;9.032;2023-11-18T03:16:35;2.15;;;1.40;;
37321;SDS011;23697;48.684;9.032;2023-11-18T03:19:03;1.63;;;1.30;;
37321;SDS011;23697;48.684;9.032;2023-11-18T03:21:30;1.67;;;1.20;;
37321;SDS011;23697;48.684;9.032;2023-11-18T03:23:57;2.10;;;1.40;;
37321;SDS011;23697;48.684;9.032;2023-11-18T03:26:23;2.63;;;1.40;;
37321;SDS011;23697;48.684;9.032;2023-11-18T03:28:51;2.08;;;1.38;;
37321;SDS011;23697;48.684;9.032;2023-11-18T03:31:18;3.05;;;1.80;;
37321;SDS011;23697;48.684;9.032;2023-11-18T03:33:46;1.70;;;1.20;;
37321;SDS011;23697;48.684;9.032;2023-11-18T03:36:13;2.03;;;1.50;;
37321;SDS011;23697;48.684;9.032;2023-11-18T03:38:42;1.73;;;1.30;;
37321;SDS011;23697;48.684;9.032;2023-11-18T03:44:00;1.92;;;1.42;;
37321;SDS011;23697;48.684;9.032;2023-11-18T03:46:27;2.85;;;1.73;;
37321;SDS011;23697;48.684;9.032;2023-11-18T03:49:00;1.85;;;1.30;;
37321;SDS011;23697;48.684;9.032;2023-11-18T03:51:27;1.95;;;1.33;;
37321;SDS011;23697;48.684;9.032;2023-11-18T03:53:54;2.78;;;1.55;;
37321;SDS011;23697;48.684;9.032;2023-11-18T03:56:21;1.70;;;1.25;;
37321;SDS011;23697;48.684;9.032;2023-11-18T03:58:48;1.77;;;1.30;;
37321;SDS011;23697;48.684;9.032;2023-11-18T04:01:19;1.67;;;1.30;;
37321;SDS011;23697;48.684;9.032;2023-11-18T04:03:46;2.10;;;1.52;;
37321;SDS011;23697;48.684;9.032;2023-11-18T04:06:14;3.40;;;1.70;;
37321;SDS011;23697;48.684;9.032;2023-11-18T04:08:42;2.05;;;1.42;;
37321;SDS011;23697;48.684;9.032;2023-11-18T04:11:13;1.77;;;1.35;;
37321;SDS011;23697;48.684;9.032;2023-11-18T04:13:40;2.58;;;1.40;;
37321;SDS011;23697;48.684;9.032;2023-11-18T04:16:09;1.17;;;1.00;;
37321;SDS011;23697;48.684;9.032;2023-11-18T04:18:38;2.15;;;1.50;;
37321;SDS011;23697;48.684;9.032;2023-11-18T04:21:06;1.33;;;1.00;;
37321;SDS011;23697;48.684;9.032;2023-11-18T04:23:34;1.95;;;1.20;;
37321;SDS011;23697;48.684;9.032;2023-11-18T04:26:02;2.17;;;1.38;;
37321;SDS011;23697;48.684;9.032;2023-11-18T04:28:30;2.80;;;1.50;;
37321;SDS011;23697;48.684;9.032;2023-11-18T04:30:57;3.20;;;1.70;;
37321;SDS011;23697;48.684;9.032;2023-11-18T04:33:24;3.65;;;1.65;;
37321;SDS011;23697;48.684;9.032;2023-11-18T04:35:51;2.20;;;1.40;;
37321;SDS011;23697;48.684;9.032;2023-11-18T04:38:18;3.10;;;1.52;;
37321;SDS011;23697;48.684;9.032;2023-11-18T04:40:46;2.13;;;1.67;;
37321;SDS011;23697;48.684;9.032;2023-11-18T04:43:13;2.67;;;1.60;;
37321;SDS011;23697;48.684;9.032;2023-11-18T04:45:40;2.22;;;1.67;;
37321;SDS011;23697;48.684;9.032;2023-11-18T04:48:08;2.85;;;1.90;;
37321;SDS011;23697;48.684;9.032;2023-11-18T04:50:35;2.63;;;1.63;;
37321;SDS011;23697;48.684;9.032;2023-11-18T04:53:02;3.08;;;1.90;;
37321;SDS011;23697;48.684;9.032;2023-11-18T04:55:32;3.65;;;2.20;;
37321;SDS011;23697;48.684;9.032;2023-11-18T04:58:01;2.67;;;1.70;;
37321;SDS011;23697;48.684;9.032;2023-11-18T05:00:30;3.75;;;2.05;;
37321;SDS011;23697;48.684;9.032;2023-11-18T05:03:00;3.30;;;1.92;;
37321;SDS011;23697;48.684;9.032;2023-11-18T05:05:28;5.18;;;2.22;;
37321;SDS011;23697;48.684;9.032;2023-11-18T05:07:55;2.75;;;1.70;;
37321;SDS011;23697;48.684;9.032;2023-11-18T05:10:22;3.13;;;1.83;;
37321;SDS011;23697;48.684;9.032;2023-11-18T05:12:49;2.40;;;1.70;;
37321;SDS011;23697;48.684;9.032;2023-11-18T05:15:22;3.88;;;2.03;;
37321;SDS011;23697;48.684;9.032;2023-11-18T05:17:50;5.78;;;2.22;;
37321;SDS011;23697;48.684;9.032;2023-11-18T05:20:17;3.83;;;1.90;;
37321;SDS011;23697;48.684;9.032;2023-11-18T05:22:43;2.22;;;1.63;;
37321;SDS011;23697;48.684;9.032;2023-11-18T05:25:10;3.22;;;1.90;;
37321;SDS011;23697;48.684;9.032;2023-11-18T05:27:37;3.58;;;1.83;;
37321;SDS011;23697;48.684;9.032;2023-11-18T05:30:06;3.67;;;1.92;;
37321;SDS011;23697;48.684;9.032;2023-11-18T05:32:35;3.40;;;2.00;;
37321;SDS011;23697;48.684;9.032;2023-11-18T05:35:03;3.30;;;2.00;;
37321;SDS011;23697;48.684;9.032;2023-11-18T05:37:31;3.00;;;1.83;;
37321;SDS011;23697;48.684;9.032;2023-11-18T05:40:00;4.22;;;1.98;;
37321;SDS011;23697;48.684;9.032;2023-11-18T05:42:31;3.63;;;1.90;;
37321;SDS011;23697;48.684;9.032;2023-11-18T05:45:01;2.90;;;1.80;;
37321;SDS011;23697;48.684;9.032;2023-11-18T05:47:28;2.90;;;1.63;;
37321;SDS011;23697;48.684;9.032;2023-11-18T05:49:56;3.28;;;1.80;;
37321;SDS011;23697;48.684;9.032;2023-11-18T05:52:23;8.48;;;2.10;;
37321;SDS011;23697;48.684;9.032;2023-11-18T05:54:49;3.83;;;2.15;;
37321;SDS011;23697;48.684;9.032;2023-11-18T05:57:16;3.65;;;1.98;;
37321;SDS011;23697;48.684;9.032;2023-11-18T05:59:43;2.83;;;1.70;;
37321;SDS011;23697;48.684;9.032;2023-11-18T06:02:11;3.30;;;1.80;;
37321;SDS011;23697;48.684;9.032;2023-11-18T06:04:43;3.72;;;1.90;;
37321;SDS011;23697;48.684;9.032;2023-11-18T06:07:34;4.25;;;1.88;;
37321;SDS011;23697;48.684;9.032;2023-11-18T06:10:00;3.38;;;2.13;;
37321;SDS011;23697;48.684;9.032;2023-11-18T06:12:46;4.32;;;2.30;;
37321;SDS011;23697;48.684;9.032;2023-11-18T06:15:13;5.57;;;1.92;;
37321;SDS011;23697;48.684;9.032;2023-11-18T06:17:44;4.53;;;2.20;;
37321;SDS011;23697;48.684;9.032;2023-11-18T06:20:12;4.53;;;2.22;;
37321;SDS011;23697;48.684;9.032;2023-11-18T06:22:42;5.72;;;2.22;;
37321;SDS011;23697;48.684;9.032;2023-11-18T06:25:08;4.65;;;2.47;;
37321;SDS011;23697;48.684;9.032;2023-11-18T06:27:37;5.28;;;2.30;;
37321;SDS011;23697;48.684;9.032;2023-11-18T06:30:05;4.13;;;2.40;;
37321;SDS011;23697;48.684;9.032;2023-11-18T06:32:33;7.22;;;2.60;;
37321;SDS011;23697;48.684;9.032;2023-11-18T06:35:00;5.30;;;2.97;;
37321;SDS011;23697;48.684;9.032;2023-11-18T06:37:33;5.22;;;2.60;;
37321;SDS011;23697;48.684;9.032;2023-11-18T06:40:00;4.00;;;2.55;;
37321;SDS011;23697;48.684;9.032;2023-11-18T06:42:31;4.50;;;2.80;;
37321;SDS011;23697;48.684;9.032;2023-11-18T06:44:59;5.28;;;2.97;;
37321;SDS011;23697;48.684;9.032;2023-11-18T06:47:26;4.50;;;2.10;;
37321;SDS011;23697;48.684;9.032;2023-11-18T06:49:52;6.25;;;3.05;;
37321;SDS011;23697;48.684;9.032;2023-11-18T06:52:20;5.10;;;2.80;;
37321;SDS011;23697;48.684;9.032;2023-11-18T06:54:48;7.25;;;3.00;;
37321;SDS011;23697;48.684;9.032;2023-11-18T06:57:16;5.60;;;2.92;;
37321;SDS011;23697;48.684;9.032;2023-11-18T06:59:43;6.00;;;3.03;;
37321;SDS011;23697;48.684;9.032;2023-11-18T07:02:10;6.60;;;2.95;;
37321;SDS011;23697;48.684;9.032;2023-11-18T07:04:37;5.80;;;3.08;;
37321;SDS011;23697;48.684;9.032;2023-11-18T07:10:07;5.07;;;2.45;;
37321;SDS011;23697;48.684;9.032;2023-11-18T07:15:58;5.10;;;2.75;;
37321;SDS011;23697;48.684;9.032;2023-11-18T07:21:46;9.10;;;2.67;;
37321;SDS011;23697;48.684;9.032;2023-11-18T07:24:12;6.63;;;2.97;;
37321;SDS011;23697;48.684;9.032;2023-11-18T07:26:40;5.75;;;2.92;;
37321;SDS011;23697;48.684;9.032;2023-11-18T07:29:09;6.30;;;2.45;;
37321;SDS011;23697;48.684;9.032;2023-11-18T07:31:36;5.85;;;2.63;;
37321;SDS011;23697;48.684;9.032;2023-11-18T07:34:03;5.35;;;2.88;;
37321;SDS011;23697;48.684;9.032;2023-11-18T07:36:38;5.50;;;3.08;;
37321;SDS011;23697;48.684;9.032;2023-11-18T07:39:05;5.28;;;3.13;;
37321;SDS011;23697;48.684;9.032;2023-11-18T07:41:42;4.35;;;2.53;;
37321;SDS011;23697;48.684;9.032;2023-11-18T07:44:09;5.55;;;2.97;;
37321;SDS011;23697;48.684;9.032;2023-11-18T07:46:38;5.18;;;2.80;;
37321;SDS011;23697;48.684;9.032;2023-11-18T07:49:07;4.57;;;2.63;;
37321;SDS011;23697;48.684;9.032;2023-11-18T07:51:34;6.72;;;3.08;;
37321;SDS011;23697;48.684;9.032;2023-11-18T07:54:01;5.18;;;2.38;;
37321;SDS011;23697;48.684;9.032;2023-11-18T07:56:31;4.57;;;2.58;;
37321;SDS011;23697;48.684;9.032;2023-11-18T07:58:59;3.72;;;2.40;;
37321;SDS011;23697;48.684;9.032;2023-11-18T08:01:26;5.85;;;2.63;;
37321;SDS011;23697;48.684;9.032;2023-11-18T08:03:53;4.82;;;2.53;;
37321;SDS011;23697;48.684;9.032;2023-11-18T08:06:20;3.65;;;2.20;;
37321;SDS011;23697;48.684;9.032;2023-11-18T08:08:50;4.22;;;2.25;;
37321;SDS011;23697;48.684;9.032;2023-11-18T08:11:19;3.85;;;2.28;;
37321;SDS011;23697;48.684;9.032;2023-11-18T08:13:46;4.40;;;2.40;;
37321;SDS011;23697;48.684;9.032;2023-11-18T08:16:14;3.80;;;2.25;;
37321;SDS011;23697;48.684;9.032;2023-11-18T08:18:40;3.75;;;2.00;;
37321;SDS011;23697;48.684;9.032;2023-11-18T08:21:07;2.72;;;1.80;;
37321;SDS011;23697;48.684;9.032;2023-11-18T08:23:34;3.03;;;1.67;;
37321;SDS011;23697;48.684;9.032;2023-11-18T08:26:02;9.95;;;1.80;;
37321;SDS011;23697;48.684;9.032;2023-11-18T08:28:30;2.30;;;1.60;;
37321;SDS011;23697;48.684;9.032;2023-11-18T08:30:57;2.88;;;1.50;;
37321;SDS011;23697;48.684;9.032;2023-11-18T08:33:27;3.45;;;1.77;;
37321;SDS011;23697;48.684;9.032;2023-11-18T08:35:53;2.53;;;1.55;;
37321;SDS011;23697;48.684;9.032;2023-11-18T08:38:21;2.60;;;1.63;;
37321;SDS011;23697;48.684;9.032;2023-11-18T08:40:54;2.03;;;1.60;;
37321;SDS011;23697;48.684;9.032;2023-11-18T08:43:21;2.85;;;1.55;;
37321;SDS011;23697;48.684;9.032;2023-11-18T08:45:48;4.47;;;1.63;;
37321;SDS011;23697;48.684;9.032;2023-11-18T08:48:15;1.85;;;1.25;;
37321;SDS011;23697;48.684;9.032;2023-11-18T08:50:44;2.17;;;1.35;;
37321;SDS011;23697;48.684;9.032;2023-11-18T08:53:11;3.08;;;1.52;;
37321;SDS011;23697;48.684;9.032;2023-11-18T08:55:42;2.10;;;1.40;;
37321;SDS011;23697;48.684;9.032;2023-11-18T08:58:16;2.53;;;1.67;;
37321;SDS011;23697;48.684;9.032;2023-11-18T09:00:44;2.17;;;1.33;;
37321;SDS011;23697;48.684;9.032;2023-11-18T09:03:13;2.10;;;1.33;;
37321;SDS011;23697;48.684;9.032;2023-11-18T09:05:51;1.83;;;1.27;;
37321;SDS011;23697;48.684;9.032;2023-11-18T09:08:24;1.25;;;0.98;;
37321;SDS011;23697;48.684;9.032;2023-11-18T09:10:54;1.65;;;1.20;;
37321;SDS011;23697;48.684;9.032;2023-11-18T09:13:22;3.58;;;1.45;;
37321;SDS011;23697;48.684;9.032;2023-11-18T09:15:53;2.05;;;1.30;;
37321;SDS011;23697;48.684;9.032;2023-11-18T09:18:21;1.67;;;1.10;;
37321;SDS011;23697;48.684;9.032;2023-11-18T09:20:51;1.50;;;1.15;;
37321;SDS011;23697;48.684;9.032;2023-11-18T09:23:19;2.95;;;1.30;;
37321;SDS011;23697;48.684;9.032;2023-11-18T09:25:48;1.55;;;1.10;;
37321;SDS011;23697;48.684;9.032;2023-11-18T09:28:17;1.55;;;1.00;;
37321;SDS011;23697;48.684;9.032;2023-11-18T09:30:44;1.45;;;1.05;;
37321;SDS011;23697;48.684;9.032;2023-11-18T09:33:18;1.95;;;1.33;;
37321;SDS011;23697;48.684;9.032;2023-11-18T09:35:55;1.90;;;1.20;;
37321;SDS011;23697;48.684;9.032;2023-11-18T09:38:25;1.58;;;1.00;;
37321;SDS011;23697;48.684;9.032;2023-11-18T09:40:54;1.25;;;0.93;;
37321;SDS011;23697;48.684;9.032;2023-11-18T09:43:21;4.03;;;1.20;;
37321;SDS011;23697;48.684;9.032;2023-11-18T09:45:52;2.40;;;0.98;;
37321;SDS011;23697;48.684;9.032;2023-11-18T09:48:21;2.33;;;1.17;;
37321;SDS011;23697;48.684;9.032;2023-11-18T09:50:50;3.55;;;1.27;;
37321;SDS011;23697;48.684;9.032;2023-11-18T09:53:20;2.15;;;1.25;;
37321;SDS011;23697;48.684;9.032;2023-11-18T09:55:52;2.67;;;1.13;;
37321;SDS011;23697;48.684;9.032;2023-11-18T09:58:25;1.20;;;1.10;;
37321;SDS011;23697;48.684;9.032;2023-11-18T10:01:06;2.63;;;1.25;;
37321;SDS011;23697;48.684;9.032;2023-11-18T10:03:38;2.70;;;1.13;;
37321;SDS011;23697;48.684;9.032;2023-11-18T10:06:07;1.25;;;1.02;;
37321;SDS011;23697;48.684;9.032;2023-11-18T10:08:36;1.50;;;1.00;;
37321;SDS011;23697;48.684;9.032;2023-11-18T10:11:04;1.67;;;0.93;;
37321;SDS011;23697;48.684;9.032;2023-11-18T10:13:34;2.35;;;1.05;;
37321;SDS011;23697;48.684;9.032;2023-11-18T10:16:05;1.02;;;0.90;;
37321;SDS011;23697;48.684;9.032;2023-11-18T10:18:33;2.58;;;1.20;;
37321;SDS011;23697;48.684;9.032;2023-11-18T10:21:01;4.25;;;1.30;;
37321;SDS011;23697;48.684;9.032;2023-11-18T10:23:33;0.82;;;0.82;;
37321;SDS011;23697;48.684;9.032;2023-11-18T10:26:04;2.55;;;0.90;;
37321;SDS011;23697;48.684;9.032;2023-11-18T10:28:33;1.60;;;1.02;;
37321;SDS011;23697;48.684;9.032;2023-11-18T10:31:03;1.85;;;1.02;;
37321;SDS011;23697;48.684;9.032;2023-11-18T10:33:31;2.10;;;1.23;;
37321;SDS011;23697;48.684;9.032;2023-11-18T10:36:01;1.40;;;0.88;;
37321;SDS011;23697;48.684;9.032;2023-11-18T10:38:29;4.18;;;1.10;;
37321;SDS011;23697;48.684;9.032;2023-11-18T10:40:57;1.65;;;0.75;;
37321;SDS011;23697;48.684;9.032;2023-11-18T10:43:27;5.10;;;1.40;;
37321;SDS011;23697;48.684;9.032;2023-11-18T10:46:03;1.67;;;1.00;;
37321;SDS011;23697;48.684;9.032;2023-11-18T10:48:37;3.78;;;1.00;;
37321;SDS011;23697;48.684;9.032;2023-11-18T10:51:06;1.75;;;1.02;;
37321;SDS011;23697;48.684;9.032;2023-11-18T10:53:33;1.92;;;0.90;;
37321;SDS011;23697;48.684;9.032;2023-11-18T10:56:02;1.95;;;0.90;;
37321;SDS011;23697;48.684;9.032;2023-11-18T10:58:36;1.08;;;0.98;;
37321;SDS011;23697;48.684;9.032;2023-11-18T11:01:06;1.63;;;1.10;;
37321;SDS011;23697;48.684;9.032;2023-11-18T11:03:39;1.65;;;1.02;;
37321;SDS011;23697;48.684;9.032;2023-11-18T11:06:18;1.50;;;1.15;;
37321;SDS011;23697;48.684;9.032;2023-11-18T11:08:48;1.70;;;1.20;;
37321;SDS011;23697;48.684;9.032;2023-11-18T11:11:15;2.30;;;1.10;;
37321;SDS011;23697;48.684;9.032;2023-11-18T11:13:48;1.25;;;0.82;;
37321;SDS011;23697;48.684;9.032;2023-11-18T11:16:16;1.77;;;0.93;;
37321;SDS011;23697;48.684;9.032;2023-11-18T11:18:47;4.00;;;1.10;;
37321;SDS011;23697;48.684;9.032;2023-11-18T11:21:19;1.63;;;0.95;;
37321;SDS011;23697;48.684;9.032;2023-11-18T11:23:53;1.27;;;0.75;;
37321;SDS011;23697;48.684;9.032;2023-11-18T11:26:34;1.48;;;1.13;;
37321;SDS011;23697;48.684;9.032;2023-11-18T11:29:18;1.33;;;1.00;;
37321;SDS011;23697;48.684;9.032;2023-11-18T11:31:55;1.23;;;0.80;;
37321;SDS011;23697;48.684;9.032;2023-11-18T11:34:37;0.93;;;0.77;;
37321;SDS011;23697;48.684;9.032;2023-11-18T11:37:07;1.77;;;0.77;;
37321;SDS011;23697;48.684;9.032;2023-11-18T11:39:35;1.38;;;0.88;;
37321;SDS011;23697;48.684;9.032;2023-11-18T11:42:11;1.55;;;0.90;;
37321;SDS011;23697;48.684;9.032;2023-11-18T11:44:40;1.23;;;0.80;;
37321;SDS011;23697;48.684;9.032;2023-11-18T11:47:08;2.03;;;0.85;;
37321;SDS011;23697;48.684;9.032;2023-11-18T11:49:41;1.77;;;1.00;;
37321;SDS011;23697;48.684;9.032;2023-11-18T11:52:18;1.42;;;1.00;;
37321;SDS011;23697;48.684;9.032;2023-11-18T11:54:54;1.40;;;1.00;;
37321;SDS011;23697;48.684;9.032;2023-11-18T11:57:28;1.25;;;1.05;;
37321;SDS011;23697;48.684;9.032;2023-11-18T11:59:56;3.42;;;1.40;;
37321;SDS011;23697;48.684;9.032;2023-11-18T12:02:22;1.75;;;1.10;;
37321;SDS011;23697;48.684;9.032;2023-11-18T12:04:54;1.67;;;1.17;;
37321;SDS011;23697;48.684;9.032;2023-11-18T12:07:24;1.92;;;1.20;;
37321;SDS011;23697;48.684;9.032;2023-11-18T12:09:54;1.60;;;1.20;;
37321;SDS011;23697;48.684;9.032;2023-11-18T12:12:23;2.20;;;1.17;;
37321;SDS011;23697;48.684;9.032;2023-11-18T12:14:52;2.42;;;1.27;;
37321;SDS011;23697;48.684;9.032;2023-11-18T12:17:22;1.65;;;1.20;;
37321;SDS011;23697;48.684;9.032;2023-11-18T12:19:53;1.65;;;1.17;;
37321;SDS011;23697;48.684;9.032;2023-11-18T12:22:24;2.22;;;1.20;;
37321;SDS011;23697;48.684;9.032;2023-11-18T12:27:57;2.45;;;1.10;;
37321;SDS011;23697;48.684;9.032;2023-11-18T12:30:39;2.17;;;1.08;;
37321;SDS011;23697;48.684;9.032;2023-11-18T12:33:18;2.22;;;1.30;;
37321;SDS011;23697;48.684;9.032;2023-11-18T12:39:17;1.73;;;1.42;;
37321;SDS011;23697;48.684;9.032;2023-11-18T12:42:02;3.53;;;1.38;;
37321;SDS011;23697;48.684;9.032;2023-11-18T12:44:37;1.33;;;0.95;;
37321;SDS011;23697;48.684;9.032;2023-11-18T12:47:09;1.50;;;1.15;;
37321;SDS011;23697;48.684;9.032;2023-11-18T12:49:45;2.15;;;1.40;;
37321;SDS011;23697;48.684;9.032;2023-11-18T12:52:15;3.38;;;1.45;;
37321;SDS011;23697;48.684;9.032;2023-11-18T12:54:43;2.42;;;1.30;;
37321;SDS011;23697;48.684;9.032;2023-11-18T12:57:15;2.10;;;1.13;;
37321;SDS011;23697;48.684;9.032;2023-11-18T12:59:42;3.08;;;1.52;;
37321;SDS011;23697;48.684;9.032;2023-11-18T13:02:11;3.03;;;1.40;;
37321;SDS011;23697;48.684;9.032;2023-11-18T13:04:45;1.95;;;1.25;;
37321;SDS011;23697;48.684;9.032;2023-11-18T13:07:14;2.58;;;1.35;;
37321;SDS011;23697;48.684;9.032;2023-11-18T13:09:42;3.17;;;1.27;;
37321;SDS011;23697;48.684;9.032;2023-11-18T13:12:11;3.33;;;1.45;;
37321;SDS011;23697;48.684;9.032;2023-11-18T13:14:40;1.73;;;1.30;;
37321;SDS011;23697;48.684;9.032;2023-11-18T13:17:08;1.58;;;1.40;;
37321;SDS011;23697;48.684;9.032;2023-11-18T13:19:36;2.30;;;1.40;;
37321;SDS011;23697;48.684;9.032;2023-11-18T13:22:05;4.63;;;1.67;;
37321;SDS011;23697;48.684;9.032;2023-11-18T13:24:34;2.00;;;1.37;;
37321;SDS011;23697;48.684;9.032;2023-11-18T13:27:01;4.07;;;1.70;;
37321;SDS011;23697;48.684;9.032;2023-11-18T13:29:29;2.95;;;1.60;;
37321;SDS011;23697;48.684;9.032;2023-11-18T13:31:57;2.90;;;1.58;;
37321;SDS011;23697;48.684;9.032;2023-11-18T13:34:25;3.90;;;1.80;;
37321;SDS011;23697;48.684;9.032;2023-11-18T13:36:55;2.65;;;1.63;;
37321;SDS011;23697;48.684;9.032;2023-11-18T13:39:23;2.22;;;1.50;;
37321;SDS011;23697;48.684;9.032;2023-11-18T13:41:52;3.15;;;1.77;;
37321;SDS011;23697;48.684;9.032;2023-11-18T13:44:31;4.80;;;1.70;;
37321;SDS011;23697;48.684;9.032;2023-11-18T13:47:00;2.70;;;1.30;;
37321;SDS011;23697;48.684;9.032;2023-11-18T13:49:30;2.72;;;1.40;;
37321;SDS011;23697;48.684;9.032;2023-11-18T13:51:57;2.13;;;1.30;;
37321;SDS011;23697;48.684;9.032;2023-11-18T13:54:25;2.47;;;1.38;;
37321;SDS011;23697;48.684;9.032;2023-11-18T13:56:54;2.65;;;1.30;;
37321;SDS011;23697;48.684;9.032;2023-11-18T13:59:23;1.55;;;1.27;;
37321;SDS011;23697;48.684;9.032;2023-11-18T14:01:51;2.35;;;1.50;;
37321;SDS011;23697;48.684;9.032;2023-11-18T14:04:18;2.63;;;1.50;;
37321;SDS011;23697;48.684;9.032;2023-11-18T14:06:45;2.50;;;1.58;;
37321;SDS011;23697;48.684;9.032;2023-11-18T14:09:17;3.20;;;1.65;;
37321;SDS011;23697;48.684;9.032;2023-11-18T14:11:48;3.70;;;1.70;;
37321;SDS011;23697;48.684;9.032;2023-11-18T14:14:15;4.80;;;1.95;;
37321;SDS011;23697;48.684;9.032;2023-11-18T14:16:42;3.78;;;1.77;;
37321;SDS011;23697;48.684;9.032;2023-11-18T14:19:09;2.40;;;1.52;;
37321;SDS011;23697;48.684;9.032;2023-11-18T14:21:37;3.17;;;1.60;;
37321;SDS011;23697;48.684;9.032;2023-11-18T14:24:05;1.85;;;1.40;;
37321;SDS011;23697;48.684;9.032;2023-11-18T14:26:33;3.33;;;1.33;;
37321;SDS011;23697;48.684;9.032;2023-11-18T14:29:00;1.95;;;1.30;;
37321;SDS011;23697;48.684;9.032;2023-11-18T14:31:27;1.42;;;1.27;;
37321;SDS011;23697;48.684;9.032;2023-11-18T14:33:54;3.17;;;1.60;;
37321;SDS011;23697;48.684;9.032;2023-11-18T14:36:23;4.35;;;1.52;;
37321;SDS011;23697;48.684;9.032;2023-11-18T14:38:50;2.70;;;1.45;;
37321;SDS011;23697;48.684;9.032;2023-11-18T14:41:17;2.80;;;1.42;;
37321;SDS011;23697;48.684;9.032;2023-11-18T14:43:45;2.17;;;1.45;;
37321;SDS011;23697;48.684;9.032;2023-11-18T14:46:13;3.50;;;1.67;;
37321;SDS011;23697;48.684;9.032;2023-11-18T14:48:40;2.72;;;1.50;;
37321;SDS011;23697;48.684;9.032;2023-11-18T14:51:07;3.00;;;1.42;;
37321;SDS011;23697;48.684;9.032;2023-11-18T14:53:35;2.55;;;1.95;;
37321;SDS011;23697;48.684;9.032;2023-11-18T14:56:02;5.20;;;1.60;;
37321;SDS011;23697;48.684;9.032;2023-11-18T14:58:30;2.83;;;1.60;;
37321;SDS011;23697;48.684;9.032;2023-11-18T15:00:57;2.95;;;1.67;;
37321;SDS011;23697;48.684;9.032;2023-11-18T15:03:26;2.33;;;1.38;;
37321;SDS011;23697;48.684;9.032;2023-11-18T15:05:54;3.55;;;1.42;;
37321;SDS011;23697;48.684;9.032;2023-11-18T15:08:21;2.55;;;1.52;;
37321;SDS011;23697;48.684;9.032;2023-11-18T15:10:48;2.25;;;1.55;;
37321;SDS011;23697;48.684;9.032;2023-11-18T15:13:16;2.20;;;1.55;;
37321;SDS011;23697;48.684;9.032;2023-11-18T15:15:43;4.00;;;1.80;;
37321;SDS011;23697;48.684;9.032;2023-11-18T15:18:12;5.05;;;1.80;;